createdAt,value
2018-08-23T00:01:08.884Z,22.80
2018-08-23T00:03:38.482Z,22.70
2018-08-23T00:06:06.981Z,22.70
2018-08-23T00:08:35.363Z,22.70
2018-08-23T00:11:03.707Z,22.70
2018-08-23T00:13:36.252Z,22.70
2018-08-23T00:16:04.622Z,22.60
2018-08-23T00:18:32.955Z,22.60
2018-08-23T00:21:01.316Z,22.60
2018-08-23T00:23:29.635Z,22.60
2018-08-23T00:25:58.067Z,22.60
2018-08-23T00:28:26.391Z,22.50
2018-08-23T00:30:54.745Z,22.50
2018-08-23T00:33:23.080Z,22.50
2018-08-23T00:35:51.749Z,22.50
2018-08-23T00:38:20.089Z,22.40
2018-08-23T00:40:48.432Z,22.40
2018-08-23T00:43:16.772Z,22.30
2018-08-23T00:45:45.113Z,22.30
2018-08-23T00:48:13.432Z,22.30
2018-08-23T00:50:50.222Z,22.30
2018-08-23T00:53:18.670Z,22.30
2018-08-23T00:55:47.027Z,22.20
2018-08-23T00:58:15.351Z,22.20
2018-08-23T01:00:49.016Z,22.20
2018-08-23T01:03:17.612Z,22.10
2018-08-23T01:05:46.310Z,22.00
2018-08-23T01:08:18.868Z,22.00
2018-08-23T01:10:47.231Z,22.00
2018-08-23T01:13:15.555Z,22.00
2018-08-23T01:15:44.030Z,21.90
2018-08-23T01:18:17.307Z,21.90
2018-08-23T01:20:46.846Z,21.90
2018-08-23T01:23:15.179Z,21.90
2018-08-23T01:25:44.707Z,21.90
2018-08-23T01:28:13.031Z,21.80
2018-08-23T01:30:41.895Z,21.80
2018-08-23T01:33:17.983Z,21.80
2018-08-23T01:35:48.378Z,21.70
2018-08-23T01:38:17.238Z,21.70
2018-08-23T01:40:46.004Z,21.70
2018-08-23T01:43:14.405Z,21.70
2018-08-23T01:45:42.748Z,21.60
2018-08-23T01:48:11.605Z,21.60
2018-08-23T01:50:40.008Z,21.60
2018-08-23T01:53:08.378Z,21.50
2018-08-23T01:55:36.739Z,21.50
2018-08-23T01:58:05.219Z,21.50
2018-08-23T02:00:34.803Z,21.40
2018-08-23T02:03:03.835Z,21.40
2018-08-23T02:05:32.240Z,21.40
2018-08-23T02:08:00.667Z,21.30
2018-08-23T02:10:28.980Z,21.20
2018-08-23T02:12:58.365Z,21.20
2018-08-23T02:15:30.073Z,21.20
2018-08-23T02:17:59.016Z,21.20
2018-08-23T02:20:28.187Z,21.20
2018-08-23T02:22:56.801Z,21.10
2018-08-23T02:25:25.362Z,21.10
2018-08-23T02:28:01.539Z,21.10
2018-08-23T02:30:46.194Z,21.10
2018-08-23T02:33:15.112Z,21.00
2018-08-23T02:35:55.968Z,20.90
2018-08-23T02:38:24.687Z,20.90
2018-08-23T02:40:53.028Z,20.80
2018-08-23T02:43:21.395Z,20.80
2018-08-23T02:45:52.848Z,20.80
2018-08-23T02:48:21.872Z,20.80
2018-08-23T02:50:50.944Z,20.70
2018-08-23T02:53:36.947Z,20.70
2018-08-23T02:56:06.469Z,20.60
2018-08-23T02:58:44.820Z,20.60
2018-08-23T03:01:13.168Z,20.50
2018-08-23T03:03:51.736Z,20.50
2018-08-23T03:06:26.370Z,20.40
2018-08-23T03:08:54.779Z,20.40
2018-08-23T03:11:23.132Z,20.30
2018-08-23T03:13:51.531Z,20.30
2018-08-23T03:16:19.868Z,20.20
2018-08-23T03:18:48.216Z,20.20
2018-08-23T03:21:16.543Z,20.10
2018-08-23T03:23:45.505Z,20.00
2018-08-23T03:26:13.879Z,20.00
2018-08-23T03:28:42.240Z,20.00
2018-08-23T03:31:10.568Z,20.00
2018-08-23T03:33:38.976Z,19.90
2018-08-23T03:36:07.308Z,19.90
2018-08-23T03:38:35.672Z,19.80
2018-08-23T03:41:04.000Z,19.80
2018-08-23T03:43:32.356Z,19.80
2018-08-23T03:46:00.971Z,19.80
2018-08-23T03:48:29.376Z,19.80
2018-08-23T03:50:57.748Z,19.80
2018-08-23T03:53:40.844Z,19.70
2018-08-23T03:56:09.784Z,19.60
2018-08-23T03:58:38.147Z,19.60
2018-08-23T04:01:09.295Z,19.60
2018-08-23T04:03:38.947Z,19.60
2018-08-23T04:06:24.892Z,19.60
2018-08-23T04:08:53.252Z,19.50
2018-08-23T04:11:21.593Z,19.50
2018-08-23T04:13:50.264Z,19.50
2018-08-23T04:16:26.220Z,19.40
2018-08-23T04:18:55.013Z,19.40
2018-08-23T04:21:23.363Z,19.30
2018-08-23T04:23:51.780Z,19.30
2018-08-23T04:26:20.634Z,19.30
2018-08-23T04:28:49.027Z,19.30
2018-08-23T04:31:17.466Z,19.30
2018-08-23T04:33:45.828Z,19.20
2018-08-23T04:36:32.720Z,19.20
2018-08-23T04:39:07.925Z,19.20
2018-08-23T04:41:36.264Z,19.20
2018-08-23T04:44:13.380Z,19.10
2018-08-23T04:46:41.720Z,19.10
2018-08-23T04:49:10.080Z,19.10
2018-08-23T04:51:38.437Z,19.00
2018-08-23T04:54:07.040Z,19.00
2018-08-23T04:56:35.391Z,19.10
2018-08-23T04:59:03.753Z,19.10
2018-08-23T05:01:32.096Z,19.00
2018-08-23T05:04:00.461Z,19.00
2018-08-23T05:06:28.801Z,19.00
2018-08-23T05:08:57.165Z,19.00
2018-08-23T05:11:25.499Z,19.10
2018-08-23T05:13:53.943Z,19.00
2018-08-23T05:16:22.216Z,19.10
2018-08-23T05:18:50.567Z,19.00
2018-08-23T05:21:18.935Z,19.10
2018-08-23T05:23:47.270Z,19.10
2018-08-23T05:26:18.737Z,19.10
2018-08-23T05:28:59.718Z,19.10
2018-08-23T05:31:29.499Z,19.10
2018-08-23T05:34:00.173Z,19.10
2018-08-23T05:36:28.571Z,19.10
2018-08-23T05:38:56.988Z,19.20
2018-08-23T05:41:25.356Z,19.10
2018-08-23T05:43:59.437Z,19.10
2018-08-23T05:46:28.216Z,19.10
2018-08-23T05:48:56.569Z,19.20
2018-08-23T05:51:24.960Z,19.20
2018-08-23T05:53:55.179Z,19.20
2018-08-23T05:56:23.542Z,19.10
2018-08-23T05:58:53.985Z,19.10
2018-08-23T06:01:22.345Z,19.10
2018-08-23T06:03:50.678Z,19.20
2018-08-23T06:06:19.088Z,19.30
2018-08-23T06:08:53.871Z,19.30
2018-08-23T06:11:22.369Z,19.40
2018-08-23T06:13:50.804Z,19.50
2018-08-23T06:16:19.168Z,19.60
2018-08-23T06:18:47.505Z,19.70
2018-08-23T06:21:15.867Z,19.70
2018-08-23T06:24:03.068Z,19.80
2018-08-23T06:26:39.253Z,19.80
2018-08-23T06:29:08.049Z,19.90
2018-08-23T06:31:43.296Z,20.00
2018-08-23T06:34:11.647Z,20.00
2018-08-23T06:36:43.958Z,20.10
2018-08-23T06:39:12.367Z,20.10
2018-08-23T06:41:40.703Z,20.20
2018-08-23T06:44:09.063Z,20.30
2018-08-23T06:46:37.432Z,20.40
2018-08-23T06:49:05.772Z,20.50
2018-08-23T06:51:34.129Z,20.60
2018-08-23T06:54:03.299Z,20.70
2018-08-23T06:56:34.376Z,20.70
2018-08-23T06:59:02.876Z,20.80
2018-08-23T07:01:37.653Z,20.90
2018-08-23T07:04:09.030Z,21.00
2018-08-23T07:06:37.514Z,21.10
2018-08-23T07:09:14.156Z,21.20
2018-08-23T07:11:42.670Z,21.30
2018-08-23T07:14:19.364Z,21.30
2018-08-23T07:16:49.967Z,21.40
2018-08-23T07:19:26.883Z,21.50
2018-08-23T07:21:55.728Z,21.60
2018-08-23T07:24:38.212Z,21.70
2018-08-23T07:27:08.160Z,21.80
2018-08-23T07:29:36.498Z,21.90
2018-08-23T07:32:08.407Z,22.00
2018-08-23T07:34:36.953Z,22.10
2018-08-23T07:37:11.690Z,22.30
2018-08-23T07:39:44.286Z,22.30
2018-08-23T07:42:12.636Z,22.40
2018-08-23T07:44:41.001Z,22.50
2018-08-23T07:47:09.458Z,22.70
2018-08-23T07:49:37.793Z,22.70
2018-08-23T07:52:06.184Z,22.90
2018-08-23T07:54:34.516Z,22.90
2018-08-23T07:57:02.888Z,23.00
2018-08-23T07:59:32.621Z,23.20
2018-08-23T08:02:03.362Z,23.30
2018-08-23T08:04:31.844Z,23.40
2018-08-23T08:07:02.222Z,23.50
2018-08-23T08:09:30.740Z,23.50
2018-08-23T08:12:01.968Z,23.60
2018-08-23T08:14:32.880Z,23.60
2018-08-23T08:17:15.503Z,23.60
2018-08-23T08:19:51.523Z,23.60
2018-08-23T08:22:21.065Z,23.60
2018-08-23T08:25:00.456Z,23.60
2018-08-23T08:27:29.107Z,23.70
2018-08-23T08:29:57.453Z,23.70
2018-08-23T08:32:25.812Z,23.70
2018-08-23T08:34:56.990Z,23.80
2018-08-23T08:37:25.656Z,23.80
2018-08-23T08:39:53.988Z,23.80
2018-08-23T08:42:27.109Z,23.90
2018-08-23T08:44:59.736Z,23.90
2018-08-23T08:47:28.124Z,23.90
2018-08-23T08:49:56.457Z,24.00
2018-08-23T08:52:24.825Z,24.10
2018-08-23T08:54:53.156Z,24.20
2018-08-23T08:57:24.564Z,24.30
2018-08-23T08:59:53.251Z,24.30
2018-08-23T09:02:21.584Z,24.40
2018-08-23T09:04:49.941Z,24.40
2018-08-23T09:07:18.300Z,24.50
2018-08-23T09:09:46.733Z,24.60
2018-08-23T09:12:15.124Z,24.60
2018-08-23T09:14:43.744Z,24.70
2018-08-23T09:17:28.916Z,24.70
2018-08-23T09:20:01.830Z,24.80
2018-08-23T09:22:35.510Z,25.00
2018-08-23T09:25:05.083Z,25.10
2018-08-23T09:27:33.444Z,25.40
2018-08-23T09:30:01.937Z,25.50
2018-08-23T09:32:30.868Z,25.70
2018-08-23T09:35:01.371Z,25.90
2018-08-23T09:37:32.752Z,26.00
2018-08-23T09:40:01.121Z,26.20
2018-08-23T09:42:32.482Z,26.40
2018-08-23T09:45:19.799Z,26.50
2018-08-23T09:47:48.191Z,26.50
2018-08-23T09:50:16.576Z,26.60
2018-08-23T09:52:47.201Z,26.60
2018-08-23T09:55:16.612Z,26.70
2018-08-23T09:57:45.481Z,26.70
2018-08-23T10:00:19.173Z,26.80
2018-08-23T10:02:52.919Z,26.80
2018-08-23T10:05:26.605Z,26.80
2018-08-23T10:08:00.288Z,26.80
2018-08-23T10:10:34.092Z,26.90
2018-08-23T10:13:07.705Z,27.00
2018-08-23T10:15:43.388Z,26.90
2018-08-23T10:18:17.108Z,26.80
2018-08-23T10:20:50.776Z,27.00
2018-08-23T10:23:22.061Z,27.10
2018-08-23T10:25:52.800Z,27.20
2018-08-23T10:28:22.467Z,27.30
2018-08-23T10:30:51.068Z,27.40
2018-08-23T10:33:19.436Z,27.40
2018-08-23T10:35:49.984Z,27.40
2018-08-23T10:38:20.877Z,27.20
2018-08-23T10:40:50.329Z,27.00
2018-08-23T10:43:23.960Z,27.10
2018-08-23T10:45:52.404Z,27.20
2018-08-23T10:48:20.824Z,27.50
2018-08-23T10:50:50.086Z,27.70
2018-08-23T10:53:18.903Z,27.80
2018-08-23T10:55:47.369Z,27.80
2018-08-23T10:58:16.512Z,27.90
2018-08-23T11:00:44.902Z,28.10
2018-08-23T11:03:13.252Z,28.30
2018-08-23T11:05:41.632Z,28.50
2018-08-23T11:08:15.399Z,28.50
2018-08-23T11:10:49.252Z,28.50
2018-08-23T11:13:22.968Z,28.50
2018-08-23T11:15:55.569Z,28.40
2018-08-23T11:18:29.680Z,28.60
2018-08-23T11:20:58.036Z,28.60
2018-08-23T11:23:27.175Z,28.60
2018-08-23T11:25:55.777Z,28.60
2018-08-23T11:28:25.480Z,28.80
2018-08-23T11:30:54.400Z,28.90
2018-08-23T11:33:22.794Z,29.00
2018-08-23T11:35:51.172Z,28.90
2018-08-23T11:38:19.508Z,28.80
2018-08-23T11:40:47.916Z,28.70
2018-08-23T11:43:16.290Z,28.70
2018-08-23T11:45:44.648Z,28.70
2018-08-23T11:48:12.997Z,28.80
2018-08-23T11:50:41.398Z,28.90
2018-08-23T11:53:09.787Z,29.10
2018-08-23T11:55:38.121Z,29.30
2018-08-23T11:58:06.530Z,29.50
2018-08-23T12:00:34.880Z,29.60
2018-08-23T12:03:03.286Z,29.80
2018-08-23T12:05:31.648Z,29.90
2018-08-23T12:08:00.017Z,30.00
2018-08-23T12:10:28.356Z,30.00
2018-08-23T12:12:56.720Z,30.10
2018-08-23T12:15:31.984Z,30.00
2018-08-23T12:18:00.777Z,30.10
2018-08-23T12:20:29.122Z,30.00
2018-08-23T12:22:57.494Z,30.00
2018-08-23T12:25:25.940Z,29.90
2018-08-23T12:28:06.469Z,29.60
2018-08-23T12:30:34.804Z,29.50
2018-08-23T12:33:03.163Z,29.40
2018-08-23T12:35:32.626Z,29.80
2018-08-23T12:38:07.449Z,30.00
2018-08-23T12:40:41.170Z,30.20
2018-08-23T12:43:11.189Z,30.50
2018-08-23T12:45:40.701Z,30.60
2018-08-23T12:48:10.302Z,30.50
2018-08-23T12:50:38.693Z,30.70
2018-08-23T12:53:07.100Z,30.90
2018-08-23T12:55:35.495Z,31.10
2018-08-23T12:58:08.096Z,31.10
2018-08-23T13:00:36.625Z,31.10
2018-08-23T13:03:05.621Z,31.30
2018-08-23T13:05:34.163Z,31.30
2018-08-23T13:08:02.609Z,31.40
2018-08-23T13:10:30.983Z,31.40
2018-08-23T13:12:59.535Z,31.20
2018-08-23T13:15:27.862Z,31.10
2018-08-23T13:17:56.243Z,31.20
2018-08-23T13:20:24.857Z,31.30
2018-08-23T13:22:53.248Z,31.30
2018-08-23T13:25:21.612Z,31.30
2018-08-23T13:27:49.983Z,31.40
2018-08-23T13:30:18.385Z,31.40
2018-08-23T13:32:46.736Z,31.40
2018-08-23T13:35:15.103Z,31.60
2018-08-23T13:37:43.482Z,31.60
2018-08-23T13:40:17.971Z,31.40
2018-08-23T13:42:46.776Z,31.40
2018-08-23T13:45:15.225Z,31.60
2018-08-23T13:47:43.604Z,31.90
2018-08-23T13:50:12.064Z,31.80
2018-08-23T13:52:40.493Z,31.80
2018-08-23T13:55:08.820Z,31.70
2018-08-23T13:57:37.161Z,31.50
2018-08-23T14:00:05.548Z,31.60
2018-08-23T14:02:33.898Z,31.60
2018-08-23T14:05:02.264Z,31.50
2018-08-23T14:07:30.639Z,31.40
2018-08-23T14:09:59.004Z,31.30
2018-08-23T14:12:27.337Z,31.30
2018-08-23T14:14:57.244Z,31.50
2018-08-23T14:17:26.927Z,31.60
2018-08-23T14:19:55.844Z,31.70
2018-08-23T14:22:24.196Z,31.60
2018-08-23T14:24:52.573Z,31.40
2018-08-23T14:27:20.934Z,31.40
2018-08-23T14:29:49.316Z,31.60
2018-08-23T14:32:17.664Z,31.90
2018-08-23T14:34:46.032Z,32.20
2018-08-23T14:37:14.460Z,32.20
2018-08-23T14:39:42.812Z,32.30
2018-08-23T14:42:11.188Z,32.30
2018-08-23T14:44:39.568Z,32.40
2018-08-23T14:47:13.268Z,32.60
2018-08-23T14:49:41.644Z,32.70
2018-08-23T14:52:09.996Z,32.50
2018-08-23T14:54:40.420Z,32.40
2018-08-23T14:57:14.113Z,32.40
2018-08-23T14:59:42.812Z,32.50
2018-08-23T15:02:11.255Z,32.50
2018-08-23T15:04:39.903Z,32.40
2018-08-23T15:07:08.248Z,32.10
2018-08-23T15:09:36.666Z,32.00
2018-08-23T15:12:04.986Z,32.10
2018-08-23T15:14:33.358Z,32.20
2018-08-23T15:17:01.709Z,32.30
2018-08-23T15:19:30.064Z,32.30
2018-08-23T15:21:58.392Z,32.30
2018-08-23T15:24:26.765Z,32.30
2018-08-23T15:26:55.154Z,32.10
2018-08-23T15:29:23.515Z,32.10
2018-08-23T15:31:51.844Z,32.30
2018-08-23T15:34:20.225Z,32.50
2018-08-23T15:36:48.560Z,32.60
2018-08-23T15:39:16.931Z,32.50
2018-08-23T15:41:45.313Z,32.10
2018-08-23T15:44:14.377Z,32.00
2018-08-23T15:46:42.760Z,32.00
2018-08-23T15:49:11.291Z,32.10
2018-08-23T15:51:40.420Z,32.10
2018-08-23T15:54:09.324Z,32.10
2018-08-23T15:56:38.299Z,32.10
2018-08-23T15:59:06.764Z,32.00
2018-08-23T16:01:35.396Z,31.80
2018-08-23T16:04:03.908Z,31.90
2018-08-23T16:06:32.300Z,32.20
2018-08-23T16:09:00.652Z,32.20
2018-08-23T16:11:29.170Z,32.00
2018-08-23T16:13:57.540Z,32.10
2018-08-23T16:16:31.221Z,32.30
2018-08-23T16:19:16.819Z,32.50
2018-08-23T16:21:49.409Z,32.70
2018-08-23T16:24:17.799Z,32.90
2018-08-23T16:26:51.539Z,32.60
2018-08-23T16:29:19.885Z,32.10
2018-08-23T16:31:48.236Z,31.60
2018-08-23T16:34:16.557Z,31.30
2018-08-23T16:36:44.924Z,31.10
2018-08-23T16:39:13.247Z,31.10
2018-08-23T16:41:41.648Z,31.00
2018-08-23T16:44:09.977Z,31.00
2018-08-23T16:46:38.368Z,31.00
2018-08-23T16:49:06.768Z,30.90
2018-08-23T16:51:35.123Z,30.70
2018-08-23T16:54:03.658Z,30.50
2018-08-23T16:56:32.044Z,30.40
2018-08-23T16:59:00.376Z,30.30
2018-08-23T17:01:28.730Z,30.20
2018-08-23T17:03:57.862Z,30.10
2018-08-23T17:06:27.563Z,30.00
2018-08-23T17:08:56.224Z,29.90
2018-08-23T17:11:24.616Z,29.70
2018-08-23T17:13:52.948Z,29.60
2018-08-23T17:16:26.743Z,29.50
2018-08-23T17:18:55.077Z,29.40
2018-08-23T17:21:23.448Z,29.30
2018-08-23T17:23:51.784Z,29.20
2018-08-23T17:26:20.181Z,29.10
2018-08-23T17:28:48.524Z,29.10
2018-08-23T17:31:16.880Z,29.10
2018-08-23T17:33:45.228Z,29.00
2018-08-23T17:36:13.588Z,29.00
2018-08-23T17:38:41.922Z,28.90
2018-08-23T17:41:10.274Z,28.90
2018-08-23T17:43:38.596Z,28.80
2018-08-23T17:46:06.947Z,28.80
2018-08-23T17:48:35.295Z,28.60
2018-08-23T17:51:03.655Z,28.60
2018-08-23T17:53:31.987Z,28.70
2018-08-23T17:56:00.348Z,28.70
2018-08-23T17:58:28.680Z,28.70
2018-08-23T18:00:57.225Z,28.60
2018-08-23T18:03:25.572Z,28.60
2018-08-23T18:05:53.948Z,28.50
2018-08-23T18:08:22.284Z,28.40
2018-08-23T18:10:50.671Z,28.30
2018-08-23T18:13:19.021Z,28.20
2018-08-23T18:15:52.877Z,28.10
2018-08-23T18:18:21.243Z,28.00
2018-08-23T18:20:49.668Z,27.80
2018-08-23T18:23:18.835Z,27.70
2018-08-23T18:25:47.225Z,27.60
2018-08-23T18:28:15.594Z,27.50
2018-08-23T18:30:43.989Z,27.40
2018-08-23T18:33:12.380Z,27.30
2018-08-23T18:35:40.728Z,27.20
2018-08-23T18:38:09.100Z,27.10
2018-08-23T18:40:37.461Z,27.00
2018-08-23T18:43:05.864Z,27.00
2018-08-23T18:45:34.590Z,27.00
2018-08-23T18:48:02.979Z,27.00
2018-08-23T18:50:31.324Z,27.00
2018-08-23T18:53:02.181Z,27.00
2018-08-23T18:55:30.541Z,27.00
2018-08-23T18:57:58.912Z,26.90
2018-08-23T19:00:27.244Z,26.80
2018-08-23T19:02:55.608Z,26.70
2018-08-23T19:05:23.955Z,26.60
2018-08-23T19:07:52.450Z,26.60
2018-08-23T19:10:20.835Z,26.50
2018-08-23T19:12:49.207Z,26.50
2018-08-23T19:15:21.784Z,26.40
2018-08-23T19:17:50.144Z,26.30
2018-08-23T19:20:18.596Z,26.30
2018-08-23T19:22:50.368Z,26.20
2018-08-23T19:25:19.230Z,26.10
2018-08-23T19:27:48.229Z,26.00
2018-08-23T19:30:17.570Z,25.90
2018-08-23T19:32:45.965Z,25.80
2018-08-23T19:35:14.432Z,25.70
2018-08-23T19:37:42.796Z,25.60
2018-08-23T19:40:11.374Z,25.60
2018-08-23T19:42:39.740Z,25.50
2018-08-23T19:45:08.095Z,25.40
2018-08-23T19:47:41.916Z,25.40
2018-08-23T19:50:11.169Z,25.40
2018-08-23T19:52:39.604Z,25.30
2018-08-23T19:55:09.152Z,25.30
2018-08-23T19:57:37.552Z,25.20
2018-08-23T20:00:07.345Z,25.20
2018-08-23T20:02:35.774Z,25.10
2018-08-23T20:05:04.163Z,25.10
2018-08-23T20:07:32.640Z,25.00
2018-08-23T20:10:00.986Z,25.00
2018-08-23T20:12:29.411Z,24.90
2018-08-23T20:14:57.712Z,24.80
2018-08-23T20:17:26.057Z,24.70
2018-08-23T20:19:54.611Z,24.60
2018-08-23T20:22:22.965Z,24.60
2018-08-23T20:24:51.365Z,24.50
2018-08-23T20:27:19.781Z,24.40
2018-08-23T20:29:48.164Z,24.30
2018-08-23T20:32:16.522Z,24.30
2018-08-23T20:34:44.892Z,24.20
2018-08-23T20:37:13.240Z,24.10
2018-08-23T20:39:41.666Z,24.10
2018-08-23T20:42:09.977Z,24.10
2018-08-23T20:44:38.384Z,24.00
2018-08-23T20:47:06.806Z,23.90
2018-08-23T20:49:35.639Z,23.80
2018-08-23T20:52:03.977Z,23.80
2018-08-23T20:54:32.409Z,23.70
2018-08-23T20:57:00.740Z,23.60
2018-08-23T20:59:29.092Z,23.60
2018-08-23T21:01:57.516Z,23.60
2018-08-23T21:04:26.073Z,23.50
2018-08-23T21:06:54.387Z,23.50
2018-08-23T21:09:22.759Z,23.40
2018-08-23T21:11:51.103Z,23.40
2018-08-23T21:14:19.488Z,23.30
2018-08-23T21:16:47.985Z,23.30
2018-08-23T21:19:16.348Z,23.20
2018-08-23T21:21:44.683Z,23.10
2018-08-23T21:24:13.044Z,23.10
2018-08-23T21:26:41.748Z,23.00
2018-08-23T21:29:10.111Z,23.00
2018-08-23T21:31:39.432Z,22.90
2018-08-23T21:34:07.800Z,22.90
2018-08-23T21:36:37.000Z,22.90
2018-08-23T21:39:07.357Z,22.80
2018-08-23T21:41:35.847Z,22.80
2018-08-23T21:44:04.630Z,22.70
2018-08-23T21:46:32.975Z,22.70
2018-08-23T21:49:01.454Z,22.50
2018-08-23T21:51:29.783Z,22.50
2018-08-23T21:53:58.196Z,22.40
2018-08-23T21:56:26.536Z,22.40
2018-08-23T21:58:54.882Z,22.40
2018-08-23T22:01:23.240Z,22.40
2018-08-23T22:03:51.572Z,22.30
2018-08-23T22:06:19.942Z,22.30
2018-08-23T22:08:48.284Z,22.30
2018-08-23T22:11:16.676Z,22.20
2018-08-23T22:13:45.021Z,22.20
2018-08-23T22:16:13.383Z,22.10
2018-08-23T22:18:41.724Z,22.10
2018-08-23T22:21:10.092Z,22.10
2018-08-23T22:23:40.096Z,22.00
2018-08-23T22:26:08.493Z,22.00
2018-08-23T22:28:36.839Z,21.90
2018-08-23T22:31:05.550Z,21.80
2018-08-23T22:33:34.002Z,21.70
2018-08-23T22:36:03.318Z,21.70
2018-08-23T22:38:31.672Z,21.60
2018-08-23T22:41:00.052Z,21.60
2018-08-23T22:43:28.402Z,21.60
2018-08-23T22:45:56.783Z,21.50
2018-08-23T22:48:25.127Z,21.40
2018-08-23T22:50:53.623Z,21.40
2018-08-23T22:53:21.956Z,21.30
2018-08-23T22:55:50.353Z,21.30
2018-08-23T22:58:18.665Z,21.30
2018-08-23T23:00:47.038Z,21.20
2018-08-23T23:03:20.779Z,21.20
2018-08-23T23:05:49.142Z,21.20
2018-08-23T23:08:17.475Z,21.10
2018-08-23T23:10:45.832Z,21.10
2018-08-23T23:13:14.185Z,21.10
2018-08-23T23:15:42.565Z,21.10
2018-08-23T23:18:10.904Z,21.10
2018-08-23T23:20:39.261Z,21.10
2018-08-23T23:23:07.608Z,21.00
2018-08-23T23:25:36.067Z,21.00
2018-08-23T23:28:04.431Z,21.00
2018-08-23T23:30:32.816Z,21.00
2018-08-23T23:33:01.156Z,21.00
2018-08-23T23:35:29.973Z,20.90
2018-08-23T23:37:58.307Z,20.90
2018-08-23T23:40:26.659Z,20.90
2018-08-23T23:42:54.992Z,21.00
2018-08-23T23:45:23.355Z,20.90
2018-08-23T23:47:51.688Z,20.90
2018-08-23T23:50:20.042Z,20.90
2018-08-23T23:52:48.413Z,20.90
2018-08-23T23:55:16.772Z,20.90
2018-08-23T23:57:45.181Z,20.80
